Time;durP1;ratioP1;P1;durP2;ratioP2;P2;SDS_P1;SDS_P2;PMS_P1;PMS_P2;Temp;Humidity;BMP_temperature;BMP_pressure;BME280_temperature;BME280_humidity;BME280_pressure;Samples;Min_cycle;Max_cycle;Signal;HPM_P1;HPM_P2
2021/01/16 00:00:53;;;;;;;5.20;2.50;;;;;;;-2.54;60.62;101652.03;5052044;28;20037;-70
2021/01/16 00:03:19;;;;;;;6.00;3.17;;;;;;;-2.49;60.62;101649.72;5051616;28;20033;-71
2021/01/16 00:05:45;;;;;;;5.13;2.30;;;;;;;-2.56;61.84;101650.16;5052220;28;20063;-71
2021/01/16 00:08:16;;;;;;;5.23;2.40;;;;;;;-2.52;61.60;101659.88;5051820;28;20041;-71
2021/01/16 00:10:42;;;;;;;4.70;2.47;;;;;;;-2.52;61.54;101657.28;5051833;28;20041;-71
2021/01/16 00:13:11;;;;;;;4.87;2.23;;;;;;;-2.55;61.15;101654.50;5051652;28;20447;-71
2021/01/16 00:15:36;;;;;;;7.07;3.07;;;;;;;-2.57;60.85;101659.56;5051696;28;20060;-71
2021/01/16 00:18:04;;;;;;;4.90;2.60;;;;;;;-2.66;62.11;101646.06;5051697;28;20681;-71
2021/01/16 00:20:34;;;;;;;4.40;2.37;;;;;;;-2.66;61.89;101653.81;5043660;28;20061;-70
2021/01/16 00:23:00;;;;;;;5.63;2.80;;;;;;;-2.68;61.28;101652.81;5051375;28;20483;-70
2021/01/16 00:25:26;;;;;;;5.10;2.80;;;;;;;-2.66;61.61;101652.13;5051658;28;20039;-71
2021/01/16 00:27:52;;;;;;;5.00;2.53;;;;;;;-2.71;61.91;101656.09;5051591;28;20446;-71
2021/01/16 00:30:19;;;;;;;7.13;2.50;;;;;;;-2.75;61.77;101656.72;5050184;28;20123;-70
2021/01/16 00:32:44;;;;;;;5.07;2.40;;;;;;;-2.72;63.03;101654.31;5051254;28;20100;-71
2021/01/16 00:35:13;;;;;;;5.63;2.80;;;;;;;-2.65;61.95;101653.00;5051562;28;20124;-71
2021/01/16 00:37:38;;;;;;;4.73;2.40;;;;;;;-2.66;61.88;101659.88;5051286;28;20091;-71
2021/01/16 00:40:06;;;;;;;5.57;2.60;;;;;;;-2.65;61.74;101661.69;5050075;28;20033;-71
2021/01/16 00:42:32;;;;;;;4.83;2.50;;;;;;;-2.57;61.27;101661.25;5049905;28;20480;-70
2021/01/16 00:44:57;;;;;;;5.97;2.70;;;;;;;-2.61;61.20;101657.59;5058538;28;20120;-70
2021/01/16 00:47:23;;;;;;;4.53;2.20;;;;;;;-2.68;61.50;101658.88;5051185;28;20035;-71
2021/01/16 00:49:48;;;;;;;4.70;2.47;;;;;;;-2.69;62.29;101667.44;5051928;28;20029;-70
2021/01/16 00:52:13;;;;;;;5.83;2.60;;;;;;;-2.68;61.40;101673.50;5049829;28;20154;-70
2021/01/16 00:54:39;;;;;;;4.63;2.47;;;;;;;-2.67;61.78;101672.72;5051350;28;20189;-71
2021/01/16 00:57:08;;;;;;;6.13;2.60;;;;;;;-2.65;61.30;101676.28;5058352;28;20507;-70
2021/01/16 00:59:34;;;;;;;4.47;2.50;;;;;;;-2.76;60.60;101675.56;5049845;28;20116;-70
2021/01/16 01:02:02;;;;;;;6.33;2.70;;;;;;;-2.77;62.50;101676.38;5052577;28;20035;-70
2021/01/16 01:04:28;;;;;;;6.00;2.73;;;;;;;-2.69;61.19;101675.19;5056406;28;20029;-70
2021/01/16 01:06:53;;;;;;;5.30;2.60;;;;;;;-2.78;61.39;101671.97;5057731;28;20036;-71
2021/01/16 01:09:18;;;;;;;4.97;2.83;;;;;;;-2.82;60.81;101671.72;5057630;28;20111;-71
2021/01/16 01:11:44;;;;;;;4.00;2.20;;;;;;;-2.79;60.64;101677.97;5057760;28;20055;-71
2021/01/16 01:14:09;;;;;;;4.57;2.67;;;;;;;-2.76;59.75;101685.00;5057408;28;20032;-71
2021/01/16 01:16:34;;;;;;;5.30;2.60;;;;;;;-2.86;61.32;101688.66;5057506;28;20134;-71
2021/01/16 01:19:00;;;;;;;5.57;2.80;;;;;;;-2.93;61.41;101678.75;5057662;28;20048;-71
2021/01/16 01:21:25;;;;;;;4.73;2.37;;;;;;;-2.87;61.39;101682.63;5057520;28;20036;-71
2021/01/16 01:23:50;;;;;;;4.60;2.40;;;;;;;-2.93;62.25;101691.66;5057394;28;20044;-70
2021/01/16 01:26:16;;;;;;;3.60;2.20;;;;;;;-2.91;60.83;101684.88;5055081;28;20083;-71
2021/01/16 01:28:41;;;;;;;5.00;2.73;;;;;;;-3.00;61.79;101690.34;5053861;28;20045;-71
2021/01/16 01:31:06;;;;;;;4.43;2.30;;;;;;;-3.01;62.38;101691.16;5055812;28;20037;-71
2021/01/16 01:33:32;;;;;;;4.50;2.10;;;;;;;-2.98;61.29;101687.88;5057285;28;20086;-71
2021/01/16 01:35:57;;;;;;;4.57;2.43;;;;;;;-3.01;61.36;101696.31;5055985;28;20041;-70
2021/01/16 01:38:22;;;;;;;5.17;2.70;;;;;;;-3.02;61.43;101688.44;5055759;28;20038;-71
2021/01/16 01:40:48;;;;;;;5.43;2.30;;;;;;;-2.98;61.05;101691.34;5053426;28;20036;-71
2021/01/16 01:43:14;;;;;;;5.67;2.53;;;;;;;-2.97;61.15;101690.53;5051212;28;20043;-70
2021/01/16 01:45:39;;;;;;;4.17;1.90;;;;;;;-2.94;62.18;101688.16;5057455;28;20047;-71
2021/01/16 01:48:05;;;;;;;6.13;2.47;;;;;;;-2.90;61.81;101681.53;5057245;28;20043;-71
2021/01/16 01:50:31;;;;;;;5.87;2.43;;;;;;;-2.89;61.59;101676.44;5057448;28;20056;-71
2021/01/16 01:53:00;;;;;;;4.87;2.40;;;;;;;-2.83;62.04;101685.41;5057135;28;20041;-71
2021/01/16 01:55:27;;;;;;;4.87;2.50;;;;;;;-2.78;61.83;101677.16;5057167;28;20131;-71
2021/01/16 01:57:56;;;;;;;4.50;2.20;;;;;;;-2.79;62.27;101674.47;5057346;28;20600;-71
2021/01/16 02:00:23;;;;;;;4.07;2.20;;;;;;;-2.73;61.45;101680.94;5057166;28;20032;-71
2021/01/16 02:02:49;;;;;;;4.50;2.37;;;;;;;-2.78;61.55;101682.31;5057014;28;20495;-71
2021/01/16 02:05:15;;;;;;;4.13;2.23;;;;;;;-2.82;61.99;101677.75;5056317;28;20364;-71
2021/01/16 02:07:41;;;;;;;5.20;2.30;;;;;;;-2.79;61.57;101683.13;5057147;28;20041;-71
2021/01/16 02:10:23;;;;;;;4.20;2.40;;;;;;;-2.80;62.38;101686.50;5057086;28;20119;-71
2021/01/16 02:12:58;;;;;;;5.63;2.37;;;;;;;-2.83;62.24;101682.81;5063240;28;20115;-70
2021/01/16 02:15:43;;;;;;;6.67;2.67;;;;;;;-2.73;60.96;101686.09;5053497;28;20035;-71
2021/01/16 02:18:25;;;;;;;5.50;2.50;;;;;;;-2.84;61.14;101679.34;5053866;28;20044;-71
2021/01/16 02:20:53;;;;;;;7.05;2.70;;;;;;;-2.81;61.62;101676.06;5054192;28;20170;-70
2021/01/16 02:23:30;;;;;;;4.43;2.30;;;;;;;-2.80;61.03;101671.00;5053594;28;20028;-70
2021/01/16 02:26:29;;;;;;;3.97;2.17;;;;;;;-2.80;61.69;101676.19;5053890;28;20029;-72
2021/01/16 02:29:01;;;;;;;5.07;2.37;;;;;;;-2.81;61.07;101687.28;5049059;28;20167;-71
2021/01/16 02:31:31;;;;;;;6.90;2.92;;;;;;;-2.87;61.85;101686.91;5053707;28;20086;-71
2021/01/16 02:33:59;;;;;;;4.47;2.30;;;;;;;-2.94;62.36;101689.84;5053437;28;20045;-72
2021/01/16 02:36:33;;;;;;;6.80;2.87;;;;;;;-2.85;61.43;101684.44;5053531;28;20037;-71
2021/01/16 02:39:31;;;;;;;5.70;2.70;;;;;;;-2.89;61.70;101684.19;5053470;28;20464;-70
2021/01/16 02:41:56;;;;;;;9.23;2.70;;;;;;;-2.90;62.46;101685.00;5039829;28;20110;-71
2021/01/16 02:44:34;;;;;;;5.57;3.10;;;;;;;-2.97;62.73;101674.16;5053219;28;20037;-70
2021/01/16 02:47:07;;;;;;;5.40;3.00;;;;;;;-2.96;62.90;101681.09;5053448;28;20454;-71
2021/01/16 02:49:42;;;;;;;5.30;2.60;;;;;;;-2.99;63.23;101676.63;5045587;28;20051;-71
2021/01/16 02:52:12;;;;;;;6.00;3.00;;;;;;;-2.93;62.91;101673.59;5053236;28;20726;-71
2021/01/16 02:54:43;;;;;;;5.13;2.80;;;;;;;-2.92;62.81;101667.59;5053500;28;20060;-71
2021/01/16 02:57:10;;;;;;;5.17;2.50;;;;;;;-2.97;63.81;101669.00;5053226;28;20055;-71
2021/01/16 02:59:36;;;;;;;5.40;2.77;;;;;;;-2.96;63.73;101670.78;5053150;28;20045;-71
2021/01/16 03:02:06;;;;;;;5.10;2.80;;;;;;;-2.91;63.68;101659.06;5053000;28;20119;-72
2021/01/16 03:04:33;;;;;;;5.27;2.87;;;;;;;-2.96;63.89;101656.19;5045175;28;20041;-71
2021/01/16 03:06:59;;;;;;;7.47;3.10;;;;;;;-2.98;63.97;101656.88;5053314;28;20431;-71
2021/01/16 03:09:25;;;;;;;8.00;3.00;;;;;;;-3.03;64.18;101660.84;5050497;28;20098;-71
2021/01/16 03:11:51;;;;;;;5.47;2.53;;;;;;;-3.11;65.42;101662.91;5051240;28;20372;-70
2021/01/16 03:14:19;;;;;;;5.30;3.20;;;;;;;-3.12;65.62;101662.03;5052557;28;20151;-71
2021/01/16 03:17:08;;;;;;;6.83;3.80;;;;;;;-3.06;65.20;101664.13;5051025;28;20499;-71
2021/01/16 03:19:37;;;;;;;8.03;3.00;;;;;;;-3.01;64.49;101656.66;5045153;28;20123;-71
2021/01/16 03:22:14;;;;;;;5.40;3.20;;;;;;;-3.06;64.80;101663.22;5052694;28;20434;-70
2021/01/16 03:24:40;;;;;;;6.40;2.97;;;;;;;-3.11;64.77;101658.63;5045720;28;20045;-71
2021/01/16 03:27:05;;;;;;;7.23;2.83;;;;;;;-3.16;65.16;101654.84;5052758;28;20037;-71
2021/01/16 03:29:30;;;;;;;6.73;2.63;;;;;;;-3.16;65.02;101660.00;5052686;28;20043;-70
2021/01/16 03:31:56;;;;;;;5.10;2.60;;;;;;;-3.21;65.39;101648.47;5052627;28;20037;-71
2021/01/16 03:34:21;;;;;;;5.57;2.43;;;;;;;-3.19;65.56;101652.06;5052441;28;20048;-71
2021/01/16 03:36:46;;;;;;;6.30;2.87;;;;;;;-3.15;65.05;101659.22;5052425;28;20033;-70
2021/01/16 03:39:12;;;;;;;5.50;2.60;;;;;;;-3.18;65.10;101651.25;5052370;28;20029;-71
2021/01/16 03:41:37;;;;;;;5.93;2.90;;;;;;;-3.26;65.73;101651.56;5049380;28;20053;-70
2021/01/16 03:44:02;;;;;;;5.30;2.63;;;;;;;-3.23;65.60;101660.38;5048462;28;20036;-71
2021/01/16 03:46:28;;;;;;;5.20;3.03;;;;;;;-3.23;66.34;101660.38;5052291;28;20029;-71
2021/01/16 03:48:53;;;;;;;7.30;3.20;;;;;;;-3.19;65.59;101656.34;5050901;28;20040;-71
2021/01/16 03:51:18;;;;;;;7.70;3.40;;;;;;;-3.21;66.24;101645.00;5052308;28;20040;-71
2021/01/16 03:53:43;;;;;;;7.03;3.10;;;;;;;-3.08;65.37;101645.94;5051954;28;20044;-71
2021/01/16 03:56:09;;;;;;;6.63;3.23;;;;;;;-3.11;64.77;101645.72;5052031;28;20041;-71
2021/01/16 03:58:34;;;;;;;6.70;3.30;;;;;;;-3.06;65.45;101645.16;5051916;28;20036;-71
2021/01/16 04:01:00;;;;;;;7.27;3.50;;;;;;;-3.08;66.49;101645.03;5052022;28;20051;-71
2021/01/16 04:03:25;;;;;;;6.93;3.10;;;;;;;-3.14;66.37;101648.13;5051731;28;20037;-71
2021/01/16 04:05:51;;;;;;;5.80;3.33;;;;;;;-3.13;66.53;101639.56;5051964;28;20033;-71
2021/01/16 04:08:16;;;;;;;7.90;3.37;;;;;;;-3.10;66.92;101655.25;5051742;28;20094;-70
2021/01/16 04:10:41;;;;;;;7.37;3.90;;;;;;;-3.04;66.18;101656.44;5051846;28;20036;-71
2021/01/16 04:13:07;;;;;;;6.47;3.43;;;;;;;-3.20;66.33;101658.00;5051486;28;20029;-72
2021/01/16 04:15:32;;;;;;;6.63;3.43;;;;;;;-3.25;66.98;101661.97;5051794;28;20040;-71
2021/01/16 04:17:57;;;;;;;9.67;3.70;;;;;;;-3.19;66.92;101651.19;5051716;28;20036;-71
2021/01/16 04:20:23;;;;;;;6.70;3.33;;;;;;;-3.19;66.67;101656.34;5051659;28;20045;-71
2021/01/16 04:22:51;;;;;;;8.20;3.70;;;;;;;-3.23;67.04;101654.34;5051374;28;20407;-71
2021/01/16 04:25:16;;;;;;;6.53;3.37;;;;;;;-3.22;66.32;101644.13;5051648;28;20392;-70
2021/01/16 04:27:41;;;;;;;9.63;3.83;;;;;;;-3.20;67.18;101639.94;5051498;28;20123;-71
2021/01/16 04:30:07;;;;;;;6.83;3.07;;;;;;;-3.12;66.92;101654.28;5058661;28;20127;-71
2021/01/16 04:32:32;;;;;;;7.77;3.80;;;;;;;-3.05;66.39;101649.50;5051299;28;20068;-71
2021/01/16 04:34:58;;;;;;;6.83;3.57;;;;;;;-3.04;66.54;101651.28;5051531;28;20438;-71
2021/01/16 04:37:23;;;;;;;7.50;3.40;;;;;;;-3.08;65.63;101651.09;5046968;28;20620;-71
2021/01/16 04:39:48;;;;;;;8.07;3.50;;;;;;;-3.15;65.73;101635.09;5048155;28;20040;-70
2021/01/16 04:42:14;;;;;;;6.70;3.20;;;;;;;-3.16;66.36;101639.34;5051133;28;20120;-72
2021/01/16 04:44:43;;;;;;;6.93;3.50;;;;;;;-3.16;66.80;101635.88;5051294;28;20182;-71
2021/01/16 04:47:17;;;;;;;6.13;3.43;;;;;;;-3.14;67.02;101631.72;5051232;28;20035;-71
2021/01/16 04:49:43;;;;;;;7.50;3.90;;;;;;;-3.09;66.06;101632.94;5051157;28;20247;-71
2021/01/16 04:52:10;;;;;;;6.07;3.60;;;;;;;-3.13;66.77;101626.66;5051053;28;20629;-71
2021/01/16 04:54:35;;;;;;;7.60;3.40;;;;;;;-3.10;67.16;101628.53;5051145;28;20127;-71
2021/01/16 04:57:00;;;;;;;6.17;3.33;;;;;;;-3.08;67.02;101630.44;5050926;28;20170;-71
2021/01/16 04:59:26;;;;;;;5.80;3.50;;;;;;;-3.00;67.37;101628.34;5051104;28;20037;-71
2021/01/16 05:01:51;;;;;;;6.47;3.43;;;;;;;-2.97;66.55;101632.81;5051084;28;20060;-71
2021/01/16 05:04:21;;;;;;;7.03;3.50;;;;;;;-3.02;66.83;101634.22;5047402;28;20037;-71
2021/01/16 05:06:47;;;;;;;7.93;3.80;;;;;;;-3.05;66.77;101626.28;5049736;28;20088;-71
2021/01/16 05:09:13;;;;;;;5.03;3.10;;;;;;;-3.10;66.93;101632.00;5051082;28;20428;-71
2021/01/16 05:11:42;;;;;;;6.83;3.80;;;;;;;-3.05;67.06;101629.75;5050952;28;20039;-71
2021/01/16 05:14:17;;;;;;;6.23;3.77;;;;;;;-3.02;67.61;101616.13;5050686;28;20033;-71
2021/01/16 05:16:57;;;;;;;7.97;4.17;;;;;;;-3.00;67.28;101624.88;5050893;28;20037;-72
2021/01/16 05:19:27;;;;;;;7.50;4.10;;;;;;;-3.03;67.45;101619.53;5051005;28;20029;-72
2021/01/16 05:21:56;;;;;;;7.20;3.67;;;;;;;-3.06;67.98;101616.75;5050911;28;20086;-71
2021/01/16 05:24:22;;;;;;;6.20;3.40;;;;;;;-2.99;67.96;101618.91;5050751;28;20033;-74
2021/01/16 05:26:53;;;;;;;7.20;3.70;;;;;;;-3.06;68.23;101619.31;5050836;28;20402;-72
2021/01/16 05:29:21;;;;;;;7.17;3.70;;;;;;;-3.00;67.54;101619.72;5050920;28;20041;-71
2021/01/16 05:31:52;;;;;;;7.63;3.63;;;;;;;-2.98;68.22;101615.56;5050904;28;20410;-71
2021/01/16 05:34:18;;;;;;;7.77;3.87;;;;;;;-2.95;67.50;101605.41;5050662;28;20532;-71
2021/01/16 05:36:48;;;;;;;7.97;4.10;;;;;;;-2.94;68.12;101607.19;5050700;28;20119;-72
2021/01/16 05:39:14;;;;;;;8.20;3.60;;;;;;;-2.92;67.84;101603.91;5050723;28;20499;-72
2021/01/16 05:41:42;;;;;;;9.33;4.13;;;;;;;-2.88;68.22;101603.34;5050780;28;20044;-72
2021/01/16 05:44:08;;;;;;;7.07;3.80;;;;;;;-2.92;68.43;101600.44;5050508;28;20040;-69
2021/01/16 05:46:35;;;;;;;8.67;4.23;;;;;;;-2.98;68.74;101603.53;5047797;28;20039;-68
2021/01/16 05:49:01;;;;;;;9.83;4.63;;;;;;;-2.94;68.23;101599.44;5049749;28;20052;-69
2021/01/16 05:51:27;;;;;;;7.63;4.07;;;;;;;-2.94;68.76;101599.44;5054312;28;20514;-71
2021/01/16 05:53:53;;;;;;;9.47;4.53;;;;;;;-3.01;68.97;101597.25;5052789;28;20410;-69
2021/01/16 05:56:20;;;;;;;7.50;4.10;;;;;;;-2.90;68.36;101604.03;5049388;28;20033;-69
2021/01/16 05:58:46;;;;;;;10.67;4.17;;;;;;;-2.89;68.57;101596.34;5052647;28;20037;-69
2021/01/16 06:01:22;;;;;;;6.90;4.00;;;;;;;-2.82;68.60;101592.50;5051961;28;20035;-68
2021/01/16 06:03:50;;;;;;;7.87;4.47;;;;;;;-2.79;68.50;101597.84;5050453;28;20039;-69
2021/01/16 06:06:17;;;;;;;7.30;4.10;;;;;;;-2.76;68.42;101590.31;5052404;28;20035;-69
2021/01/16 06:08:50;;;;;;;13.10;5.07;;;;;;;-2.79;68.96;101592.69;5053422;28;20068;-69
2021/01/16 06:11:16;;;;;;;7.07;3.93;;;;;;;-2.83;69.26;101585.53;5053376;28;20491;-69
2021/01/16 06:13:42;;;;;;;9.03;4.03;;;;;;;-2.74;69.25;101596.47;5053210;28;20407;-69
2021/01/16 06:16:17;;;;;;;7.67;4.20;;;;;;;-2.83;69.30;101595.84;5053495;28;20039;-69
2021/01/16 06:18:56;;;;;;;6.73;4.00;;;;;;;-2.80;69.59;101590.91;5053929;28;20033;-69
2021/01/16 06:21:24;;;;;;;8.43;3.90;;;;;;;-2.78;69.82;101585.81;5053956;28;20071;-69
2021/01/16 06:23:54;;;;;;;9.27;4.50;;;;;;;-2.76;69.45;101592.88;5053638;28;20510;-70
2021/01/16 06:26:21;;;;;;;6.87;3.97;;;;;;;-2.72;69.46;101596.59;5053738;28;20036;-68
2021/01/16 06:28:57;;;;;;;8.33;3.93;;;;;;;-2.69;69.50;101592.50;5053677;28;20476;-69
2021/01/16 06:31:30;;;;;;;6.90;3.70;;;;;;;-2.65;69.63;101589.31;5053715;28;20041;-69
2021/01/16 06:34:05;;;;;;;7.73;4.10;;;;;;;-2.68;68.89;101586.50;5052802;28;20041;-69
2021/01/16 06:36:35;;;;;;;7.60;4.03;;;;;;;-2.65;69.34;101586.75;5051980;28;20037;-69
2021/01/16 06:39:05;;;;;;;6.50;3.83;;;;;;;-2.70;69.41;101582.97;5053453;28;20465;-71
2021/01/16 06:41:32;;;;;;;7.57;4.47;;;;;;;-2.69;69.50;101582.16;5045310;28;20047;-68
2021/01/16 06:43:58;;;;;;;7.87;3.87;;;;;;;-2.69;70.04;101578.69;5051565;28;20125;-69
2021/01/16 06:46:41;;;;;;;7.07;4.37;;;;;;;-2.66;69.38;101582.34;5053398;28;20395;-69
2021/01/16 06:49:07;;;;;;;8.00;4.07;;;;;;;-2.59;69.20;101578.47;5053254;28;20174;-69
2021/01/16 06:51:32;;;;;;;8.00;4.17;;;;;;;-2.52;69.16;101572.88;5053366;28;20041;-68
2021/01/16 06:54:05;;;;;;;8.17;4.60;;;;;;;-2.50;69.98;101572.97;5053030;28;20072;-69
2021/01/16 06:56:32;;;;;;;7.38;4.28;;;;;;;-2.46;69.64;101585.31;5045105;28;20114;-69
2021/01/16 06:58:58;;;;;;;7.40;4.20;;;;;;;-2.52;68.84;101577.16;5052991;28;20037;-68
2021/01/16 07:01:31;;;;;;;9.30;4.63;;;;;;;-2.49;69.51;101583.44;5052830;28;20403;-69
2021/01/16 07:04:02;;;;;;;;;;;;;;;-2.50;69.16;101581.63;5052566;28;20029;-69
2021/01/16 07:06:28;;;;;;;9.27;4.67;;;;;;;-2.52;69.81;101571.97;5052164;28;19912;-69
2021/01/16 07:08:53;;;;;;;10.13;5.10;;;;;;;-2.55;70.00;101577.84;5052966;28;20036;-68
2021/01/16 07:11:19;;;;;;;8.20;4.63;;;;;;;-2.53;69.71;101565.03;5052965;28;20024;-69
2021/01/16 07:13:45;;;;;;;8.17;4.63;;;;;;;-2.51;69.84;101563.44;5052740;28;20116;-69
2021/01/16 07:16:11;;;;;;;8.50;4.93;;;;;;;-2.51;69.99;101560.88;5052846;28;20049;-69
2021/01/16 07:18:39;;;;;;;7.50;4.13;;;;;;;-2.42;69.87;101569.19;5052772;28;20125;-69
2021/01/16 07:21:06;;;;;;;8.27;4.37;;;;;;;-2.42;69.30;101562.31;5050443;28;20050;-68
2021/01/16 07:23:33;;;;;;;18.43;5.43;;;;;;;-2.46;69.39;101554.28;5042776;28;20475;-68
2021/01/16 07:26:00;;;;;;;8.97;5.10;;;;;;;-2.42;69.81;101554.56;5052477;28;20487;-69
2021/01/16 07:28:26;;;;;;;8.93;4.27;;;;;;;-2.50;70.08;101560.06;5052450;28;20037;-69
2021/01/16 07:30:51;;;;;;;13.03;4.73;;;;;;;-2.49;70.12;101557.59;5050761;28;20043;-69
2021/01/16 07:33:17;;;;;;;8.60;4.37;;;;;;;-2.51;70.47;101556.59;5050437;28;20134;-69
2021/01/16 07:35:47;;;;;;;9.23;5.70;;;;;;;-2.50;70.93;101554.88;5052297;28;20025;-69
2021/01/16 07:38:15;;;;;;;7.77;4.63;;;;;;;-2.48;70.94;101556.78;5052152;28;20125;-69
2021/01/16 07:40:54;;;;;;;8.50;4.97;;;;;;;-2.50;71.23;101549.72;5052274;28;20041;-68
2021/01/16 07:43:28;;;;;;;8.80;5.37;;;;;;;-2.55;72.12;101546.84;5051988;28;20044;-68
2021/01/16 07:45:59;;;;;;;9.47;4.97;;;;;;;-2.52;71.66;101551.31;5052141;28;20049;-69
2021/01/16 07:48:30;;;;;;;7.93;4.20;;;;;;;-2.56;72.39;101546.75;5051966;28;20033;-69
2021/01/16 07:50:55;;;;;;;8.07;4.43;;;;;;;-2.58;73.19;101550.94;5051931;28;20051;-69
2021/01/16 07:53:29;;;;;;;8.57;4.60;;;;;;;-2.55;73.26;101552.00;5051794;28;20411;-68
2021/01/16 07:56:02;;;;;;;9.00;5.00;;;;;;;-2.48;73.47;101553.31;5052105;28;20119;-69
2021/01/16 07:58:33;;;;;;;10.57;4.87;;;;;;;-2.42;72.65;101553.69;5050137;28;20110;-69
2021/01/16 08:01:19;;;;;;;9.37;5.20;;;;;;;-2.44;73.59;101550.09;5052014;28;20112;-68
2021/01/16 08:03:44;;;;;;;9.57;4.97;;;;;;;-2.40;73.35;101549.50;5045623;28;20041;-68
2021/01/16 08:06:31;;;;;;;8.97;4.83;;;;;;;-2.39;73.42;101547.81;5051860;28;20055;-68
2021/01/16 08:09:22;;;;;;;10.37;5.47;;;;;;;-2.36;72.82;101548.88;5048022;28;20129;-69
2021/01/16 08:11:51;;;;;;;9.47;5.30;;;;;;;-2.42;73.73;101538.16;5043392;28;20029;-68
2021/01/16 08:14:21;;;;;;;11.40;5.50;;;;;;;-2.42;74.08;101543.34;5050802;28;20037;-69
2021/01/16 08:16:56;;;;;;;9.37;5.13;;;;;;;-2.40;73.29;101539.16;5051043;28;20392;-68
2021/01/16 08:19:27;;;;;;;9.87;5.23;;;;;;;-2.40;73.76;101539.16;5050243;28;20029;-69
2021/01/16 08:21:57;;;;;;;10.23;5.03;;;;;;;-2.34;74.03;101542.13;5049901;28;20029;-69
2021/01/16 08:24:27;;;;;;;11.37;5.53;;;;;;;-2.25;73.46;101532.34;5050077;28;20086;-68
2021/01/16 08:27:01;;;;;;;9.27;5.87;;;;;;;-2.31;74.54;101541.41;5051406;28;20040;-68
2021/01/16 08:29:28;;;;;;;12.03;5.57;;;;;;;-2.30;74.72;101544.09;5048833;28;20033;-68
2021/01/16 08:32:10;;;;;;;10.93;5.80;;;;;;;-2.29;74.83;101547.56;5049685;28;20079;-68
2021/01/16 08:34:59;;;;;;;10.88;5.85;;;;;;;-2.26;73.93;101529.66;5048208;28;20478;-69
2021/01/16 08:37:37;;;;;;;11.10;5.67;;;;;;;-2.19;73.64;101523.19;5050421;28;20056;-68
2021/01/16 08:40:06;;;;;;;10.13;4.97;;;;;;;-2.14;72.75;101529.53;5050625;28;20039;-71
2021/01/16 08:42:32;;;;;;;11.10;5.67;;;;;;;-2.31;73.30;101521.59;5043850;28;20518;-68
2021/01/16 08:44:58;;;;;;;11.57;5.97;;;;;;;-2.31;73.73;101515.56;5049697;28;20060;-68
2021/01/16 08:47:24;;;;;;;10.77;6.03;;;;;;;-2.27;73.90;101510.66;5051153;28;20033;-68
2021/01/16 08:49:50;;;;;;;10.57;5.70;;;;;;;-2.18;73.29;101506.84;5051528;28;20033;-69
2021/01/16 08:52:34;;;;;;;9.20;5.60;;;;;;;-2.23;72.88;101517.81;5050915;28;20056;-68
2021/01/16 08:55:02;;;;;;;9.17;5.93;;;;;;;-2.22;73.26;101516.13;5051325;28;20068;-68
2021/01/16 08:57:35;;;;;;;10.33;6.20;;;;;;;-2.31;73.01;101516.44;5050937;28;20499;-69
2021/01/16 09:00:19;;;;;;;11.10;5.10;;;;;;;-2.18;72.61;101527.53;5051137;28;20465;-68
2021/01/16 09:03:05;;;;;;;11.00;7.10;;;;;;;-2.22;72.80;101534.22;5044571;28;20033;-68
2021/01/16 09:05:32;;;;;;;11.53;6.40;;;;;;;-2.25;73.67;101524.59;5043041;28;20044;-68
2021/01/16 09:07:58;;;;;;;11.33;5.90;;;;;;;-2.31;73.31;101524.19;5051132;28;20040;-69
2021/01/16 09:10:25;;;;;;;9.83;6.00;;;;;;;-2.20;72.76;101530.06;5051014;28;20037;-68
2021/01/16 09:12:51;;;;;;;13.53;8.00;;;;;;;-2.24;73.41;101520.31;5050891;28;20056;-69
2021/01/16 09:15:21;;;;;;;14.73;8.33;;;;;;;-2.26;72.54;101520.19;5050922;28;20123;-69
2021/01/16 09:18:04;;;;;;;11.23;6.67;;;;;;;-2.19;72.69;101538.69;5050997;28;20376;-69
2021/01/16 09:20:35;;;;;;;11.93;7.10;;;;;;;-2.20;72.25;101524.88;5047248;28;20025;-68
2021/01/16 09:23:18;;;;;;;13.17;6.37;;;;;;;-2.24;73.25;101528.94;5047930;28;20025;-69
2021/01/16 09:25:45;;;;;;;11.73;6.77;;;;;;;-2.16;73.26;101526.84;5047885;28;20033;-68
2021/01/16 09:28:10;;;;;;;9.17;5.50;;;;;;;-2.08;72.50;101522.13;5053357;28;20033;-68
2021/01/16 09:30:35;;;;;;;10.70;6.30;;;;;;;-2.07;72.28;101523.91;5054708;28;20056;-68
2021/01/16 09:33:20;;;;;;;8.97;5.80;;;;;;;-2.14;72.60;101524.34;5054373;28;20072;-69
2021/01/16 09:35:46;;;;;;;10.00;5.83;;;;;;;-2.12;72.24;101517.56;5048229;28;20441;-69
2021/01/16 09:38:15;;;;;;;9.63;5.83;;;;;;;-2.13;71.95;101520.97;5054198;28;20036;-67
2021/01/16 09:40:41;;;;;;;9.97;5.47;;;;;;;-2.07;72.25;101523.91;5054065;28;20512;-68
2021/01/16 09:43:18;;;;;;;10.83;6.10;;;;;;;-2.03;71.18;101518.13;5052991;28;20115;-68
2021/01/16 09:45:57;;;;;;;10.50;5.93;;;;;;;-1.95;70.21;101527.25;5051164;28;20045;-70
2021/01/16 09:48:32;;;;;;;8.70;5.47;;;;;;;-1.98;70.22;101506.38;5054366;28;20486;-67
2021/01/16 09:50:59;;;;;;;10.43;5.83;;;;;;;-1.89;70.61;101506.91;5051335;28;20029;-68
2021/01/16 09:53:28;;;;;;;9.40;5.77;;;;;;;-1.90;69.08;101494.78;5051423;28;20048;-67
2021/01/16 09:55:54;;;;;;;9.83;6.13;;;;;;;-1.87;68.99;101494.94;5054418;28;20050;-68
2021/01/16 09:58:38;;;;;;;9.73;5.20;;;;;;;-1.93;69.78;101511.81;5051353;28;20044;-68
2021/01/16 10:01:18;;;;;;;8.93;5.40;;;;;;;-1.86;68.93;101499.34;5054310;28;20132;-68
2021/01/16 10:03:45;;;;;;;8.70;5.63;;;;;;;-1.93;69.13;101494.59;5052606;28;20085;-68
2021/01/16 10:06:13;;;;;;;11.80;6.07;;;;;;;-1.93;68.93;101488.53;5054059;28;20040;-67
2021/01/16 10:08:40;;;;;;;9.30;5.77;;;;;;;-1.96;69.86;101478.00;5054189;28;20041;-67
2021/01/16 10:11:06;;;;;;;9.90;5.73;;;;;;;-2.00;70.24;101489.84;5054013;28;20120;-68
2021/01/16 10:13:34;;;;;;;10.40;5.90;;;;;;;-1.98;69.69;101480.50;5053866;28;20041;-68
2021/01/16 10:16:01;;;;;;;10.63;6.53;;;;;;;-1.91;69.22;101480.06;5054000;28;20446;-68
2021/01/16 10:18:28;;;;;;;10.70;5.53;;;;;;;-1.96;69.38;101478.00;5053882;28;20041;-68
2021/01/16 10:21:04;;;;;;;9.83;6.07;;;;;;;-1.98;69.37;101480.50;5053964;28;20039;-68
2021/01/16 10:23:32;;;;;;;12.17;6.17;;;;;;;-1.98;69.12;101473.63;5053719;28;20041;-68
2021/01/16 10:26:06;;;;;;;12.03;6.30;;;;;;;-1.88;69.37;101461.25;5053981;28;20059;-68
2021/01/16 10:28:35;;;;;;;10.30;6.27;;;;;;;-1.91;69.05;101458.44;5045656;28;20024;-68
2021/01/16 10:31:07;;;;;;;13.23;6.17;;;;;;;-1.93;69.77;101454.91;5054039;28;20641;-69
2021/01/16 10:33:38;;;;;;;11.50;7.17;;;;;;;-1.91;69.98;101453.28;5045566;28;20036;-68
2021/01/16 10:36:07;;;;;;;11.63;6.80;;;;;;;-1.84;70.18;101458.00;5052620;28;20044;-68
2021/01/16 10:38:45;;;;;;;10.83;6.73;;;;;;;-1.83;69.74;101449.47;5045714;28;20048;-69
2021/01/16 10:41:15;;;;;;;12.87;7.93;;;;;;;-1.82;69.81;101446.94;5053698;28;20072;-69
2021/01/16 10:43:41;;;;;;;12.47;7.63;;;;;;;-1.78;69.73;101445.47;5053286;28;20045;-69
2021/01/16 10:46:30;;;;;;;11.93;7.60;;;;;;;-1.81;68.67;101443.59;5053635;28;20082;-69
2021/01/16 10:49:32;;;;;;;10.93;6.97;;;;;;;-1.91;69.87;101456.78;5053446;28;20127;-69
2021/01/16 10:52:03;;;;;;;13.03;7.87;;;;;;;-1.88;70.13;101436.25;5048629;28;20083;-69
2021/01/16 10:54:29;;;;;;;11.33;7.00;;;;;;;-1.94;69.49;101438.47;5053316;28;20459;-69
2021/01/16 10:57:02;;;;;;;12.67;7.47;;;;;;;-1.97;70.52;101430.53;5053210;28;20124;-69
2021/01/16 10:59:30;;;;;;;11.60;7.43;;;;;;;-1.90;69.24;101432.69;5053153;28;20039;-69
2021/01/16 11:01:56;;;;;;;10.60;6.93;;;;;;;-1.89;69.05;101424.09;5053297;28;20036;-69
2021/01/16 11:04:22;;;;;;;10.67;6.87;;;;;;;-1.90;69.70;101431.78;5052860;28;20044;-69
2021/01/16 11:06:50;;;;;;;11.00;7.20;;;;;;;-1.88;68.61;101441.44;5053111;28;20043;-69
2021/01/16 11:09:33;;;;;;;10.47;7.13;;;;;;;-1.86;68.97;101416.53;5047733;28;20090;-69
2021/01/16 11:12:06;;;;;;;12.60;7.57;;;;;;;-1.92;68.87;101418.75;5050904;28;20407;-69
2021/01/16 11:14:41;;;;;;;10.57;6.60;;;;;;;-1.78;69.28;101411.81;5040673;28;20116;-69
2021/01/16 11:17:09;;;;;;;11.30;6.97;;;;;;;-1.77;68.63;101408.41;5052692;28;20108;-69
2021/01/16 11:19:43;;;;;;;10.07;6.90;;;;;;;-1.75;68.23;101409.41;5052491;28;20032;-69
2021/01/16 11:22:11;;;;;;;10.80;6.87;;;;;;;-1.74;68.58;101399.94;5052463;28;20048;-70
2021/01/16 11:24:54;;;;;;;10.60;6.90;;;;;;;-1.77;68.98;101385.13;5052369;28;20029;-69
2021/01/16 11:27:22;;;;;;;11.87;6.87;;;;;;;-1.65;68.60;101400.44;5052588;28;20041;-69
2021/01/16 11:29:48;;;;;;;17.23;7.27;;;;;;;-1.67;68.79;101389.13;5052521;28;20458;-69
2021/01/16 11:32:15;;;;;;;11.33;7.17;;;;;;;-1.62;67.60;101380.81;5052075;28;20124;-69
2021/01/16 11:35:02;;;;;;;10.83;6.83;;;;;;;-1.59;67.21;101387.88;5052352;28;20052;-69